Time;durP1;ratioP1;P1;durP2;ratioP2;P2;SDS_P1;SDS_P2;PMS_P1;PMS_P2;Temp;Humidity;BMP_temperature;BMP_pressure;BME280_temperature;BME280_humidity;BME280_pressure;Samples;Min_cycle;Max_cycle;Signal;HPM_P1;HPM_P2
2022/05/16 00:01:05;;;;;;;;;7.67;7.67;;;;;20.47;73.43;101006.75;5082406;28;45542;-68
2022/05/16 00:03:30;;;;;;;;;11.33;9.33;;;;;20.52;73.70;100997.88;5081941;27;45414;-70
2022/05/16 00:05:56;;;;;;;;;10.00;10.00;;;;;20.56;73.54;100994.47;5082957;28;45510;-68
2022/05/16 00:08:21;;;;;;;;;11.00;11.00;;;;;20.56;73.03;100996.38;5082768;27;45391;-67
2022/05/16 00:10:47;;;;;;;;;12.33;12.33;;;;;20.57;73.06;101003.63;5063533;28;48276;-68
2022/05/16 00:13:12;;;;;;;;;7.33;7.33;;;;;20.52;73.70;101008.91;5079187;28;45376;-68
2022/05/16 00:15:38;;;;;;;;;10.33;9.00;;;;;20.57;72.12;101010.00;5065265;28;45412;-68
2022/05/16 00:18:05;;;;;;;;;10.00;9.33;;;;;20.74;72.75;101040.84;5074002;27;45519;-67
2022/05/16 00:20:30;;;;;;;;;11.33;8.00;;;;;20.74;76.09;101051.03;5063722;28;47480;-67
2022/05/16 00:22:56;;;;;;;;;13.00;11.00;;;;;20.61;77.26;101046.31;5075856;28;45332;-67
2022/05/16 00:25:21;;;;;;;;;14.33;13.33;;;;;20.55;76.71;101038.84;5082641;27;45330;-67
2022/05/16 00:27:47;;;;;;;;;6.33;6.00;;;;;20.60;76.25;101017.03;5081197;28;45282;-67
2022/05/16 00:30:17;;;;;;;;;9.33;8.67;;;;;20.57;75.21;100996.19;5076454;28;47182;-67
2022/05/16 00:32:44;;;;;;;;;7.00;6.00;;;;;20.44;73.64;100974.06;5075074;28;45814;-67
2022/05/16 00:35:11;;;;;;;;;7.33;4.67;;;;;20.36;72.16;100968.72;5084017;27;45408;-67
2022/05/16 00:37:37;;;;;;;;;6.00;5.00;;;;;20.34;72.95;100972.75;5086003;28;45485;-67
2022/05/16 00:40:04;;;;;;;;;5.33;3.67;;;;;20.41;73.41;100984.66;5082623;27;45404;-67
2022/05/16 00:42:30;;;;;;;;;7.67;5.67;;;;;20.41;72.82;100988.28;5086002;28;45390;-67
2022/05/16 00:44:55;;;;;;;;;2.67;2.67;;;;;20.47;70.99;101008.66;5081913;27;45448;-67
2022/05/16 00:47:20;;;;;;;;;5.00;5.00;;;;;20.48;70.60;101007.59;5084631;27;45634;-67
2022/05/16 00:49:50;;;;;;;;;6.33;6.33;;;;;20.43;72.00;101005.47;5086067;28;46527;-67
2022/05/16 00:52:26;;;;;;;;;5.00;5.00;;;;;20.36;72.81;100993.56;5085949;28;45312;-67
2022/05/16 00:54:55;;;;;;;;;5.00;5.00;;;;;20.31;72.95;100989.69;5085839;28;45356;-67
2022/05/16 00:57:25;;;;;;;;;8.67;7.00;;;;;20.18;73.64;100999.59;5085478;27;45528;-69
2022/05/16 01:00:09;;;;;;;;;8.00;7.00;;;;;20.03;75.56;100992.50;5080230;27;46408;-67
2022/05/16 01:05:22;;;;;;;;;9.33;8.00;;;;;19.88;76.62;100984.38;5086015;28;45470;-67
2022/05/16 01:07:47;;;;;;;;;7.00;5.67;;;;;19.79;76.18;100966.31;5085458;28;45506;-67
2022/05/16 01:10:20;;;;;;;;;9.00;6.67;;;;;19.75;75.87;100967.75;5072165;27;46616;-67
2022/05/16 01:12:49;;;;;;;;;5.67;5.67;;;;;19.74;77.27;100975.16;5073140;28;45412;-67
2022/05/16 01:15:25;;;;;;;;;7.00;5.67;;;;;19.73;76.62;100969.84;5085778;27;45290;-67
2022/05/16 01:17:50;;;;;;;;;7.33;7.00;;;;;19.75;76.55;100967.75;5085405;27;45356;-67
2022/05/16 01:20:16;;;;;;;;;11.67;8.00;;;;;19.76;74.92;100969.47;5085467;27;45420;-67
2022/05/16 01:22:46;;;;;;;;;8.33;5.67;;;;;19.88;74.94;100981.63;5084061;27;45415;-67
2022/05/16 01:25:29;;;;;;;;;9.67;6.67;;;;;19.98;74.22;100978.50;5085004;27;45267;-67
2022/05/16 01:27:55;;;;;;;;;9.67;8.67;;;;;19.99;75.03;100972.78;5085209;27;45490;-67
2022/05/16 01:30:26;;;;;;;;;7.00;7.00;;;;;20.02;73.64;100977.00;5077121;28;46994;-67
2022/05/16 01:32:51;;;;;;;;;8.00;7.33;;;;;19.96;73.28;100975.94;5078301;28;45817;-67
2022/05/16 01:35:19;;;;;;;;;7.00;7.00;;;;;20.03;74.16;100981.47;5085601;28;45394;-67
2022/05/16 01:40:28;;;;;;;;;5.33;4.00;;;;;20.10;73.23;100983.22;5075648;28;45393;-67
2022/05/16 01:42:54;;;;;;;;;9.00;9.00;;;;;20.08;72.79;100979.84;5081526;28;45403;-67
2022/05/16 01:45:19;;;;;;;;;8.67;8.67;;;;;20.07;72.65;100988.31;5081501;28;45700;-67
2022/05/16 01:47:45;;;;;;;;;7.00;7.00;;;;;20.13;71.51;101004.03;5082738;28;45777;-67
2022/05/16 01:50:10;;;;;;;;;7.67;6.67;;;;;20.14;71.80;101014.88;5080369;28;45316;-67
2022/05/16 01:52:36;;;;;;;;;5.67;4.67;;;;;20.15;71.02;101004.69;5083984;28;45290;-67
2022/05/16 01:55:01;;;;;;;;;5.33;5.33;;;;;20.17;71.43;100989.63;5079235;28;45293;-67
2022/05/16 01:57:26;;;;;;;;;7.00;7.00;;;;;20.17;71.39;100989.63;5083794;28;45350;-67
2022/05/16 01:59:52;;;;;;;;;8.00;8.00;;;;;20.13;71.03;100982.81;5085078;27;45375;-67
2022/05/16 02:02:17;;;;;;;;;5.67;5.67;;;;;20.13;70.62;100999.38;5084526;28;45285;-67
2022/05/16 02:04:42;;;;;;;;;7.33;7.00;;;;;20.11;71.92;100995.09;5084053;28;45433;-67
2022/05/16 02:07:08;;;;;;;;;5.67;5.00;;;;;20.13;71.23;101002.13;5083219;28;45474;-67
2022/05/16 02:09:33;;;;;;;;;7.67;7.67;;;;;20.14;71.03;101000.22;5076994;27;46509;-67
2022/05/16 02:11:59;;;;;;;;;7.00;7.00;;;;;20.13;70.05;100999.38;5068066;28;45408;-67
2022/05/16 02:14:25;;;;;;;;;9.33;6.00;;;;;20.08;70.41;100996.38;5074706;28;45410;-68
2022/05/16 02:16:50;;;;;;;;;8.33;7.00;;;;;20.11;69.60;100995.97;5069049;28;45534;-67
2022/05/16 02:19:16;;;;;;;;;9.67;8.00;;;;;20.15;70.09;101002.78;5084279;27;45504;-67
2022/05/16 02:24:40;;;;;;;;;9.00;8.33;;;;;19.97;69.65;100996.94;5082501;28;45336;-67
2022/05/16 02:27:07;;;;;;;;;9.33;9.33;;;;;19.99;70.94;101002.25;5083949;28;45424;-67
2022/05/16 02:29:34;;;;;;;;;7.67;6.00;;;;;20.06;70.09;100992.13;5080386;27;47332;-67
2022/05/16 02:32:03;;;;;;;;;6.33;5.00;;;;;20.03;70.41;100998.03;5070208;27;45234;-67
2022/05/16 02:34:29;;;;;;;;;5.33;5.33;;;;;19.88;70.05;100975.25;5084539;27;45381;-67
2022/05/16 02:36:54;;;;;;;;;11.00;9.33;;;;;19.91;70.30;100983.97;5084422;28;45390;-67
2022/05/16 02:39:20;;;;;;;;;9.33;9.33;;;;;19.90;71.37;100998.81;5079517;28;45368;-67
2022/05/16 02:41:45;;;;;;;;;9.67;9.67;;;;;19.82;71.12;101010.00;5083964;28;45246;-67
2022/05/16 02:44:12;;;;;;;;;7.33;7.33;;;;;19.85;70.88;101011.50;5083406;28;45331;-67
2022/05/16 02:46:37;;;;;;;;;8.33;8.00;;;;;19.83;70.36;101008.94;5084428;27;45233;-67
2022/05/16 02:49:04;;;;;;;;;10.67;9.67;;;;;19.79;71.50;101010.44;5076912;27;46672;-67
2022/05/16 02:51:30;;;;;;;;;10.33;9.00;;;;;19.81;71.31;101006.38;5083899;28;45470;-67
2022/05/16 02:53:55;;;;;;;;;9.67;9.67;;;;;19.87;70.75;101014.94;5073122;28;45448;-69
2022/05/16 02:56:21;;;;;;;;;10.33;9.33;;;;;19.92;71.22;101010.50;5083645;28;45613;-68
2022/05/16 02:58:46;;;;;;;;;12.00;12.00;;;;;20.01;70.01;101016.72;5081596;27;48040;-67
2022/05/16 03:01:12;;;;;;;;;5.00;5.00;;;;;19.96;70.33;101011.78;5064212;27;45693;-67
2022/05/16 03:03:39;;;;;;;;;10.00;9.67;;;;;20.07;69.30;101029.69;5083186;28;46096;-68
2022/05/16 03:06:05;;;;;;;;;13.00;11.00;;;;;20.03;70.83;101028.38;5084179;28;45376;-67
2022/05/16 03:08:30;;;;;;;;;14.67;12.67;;;;;19.97;69.84;101021.78;5083101;27;45426;-67
2022/05/16 03:10:57;;;;;;;;;11.67;11.67;;;;;19.99;70.01;101019.66;5064429;27;45329;-67
2022/05/16 03:13:23;;;;;;;;;13.33;12.00;;;;;20.06;70.78;101014.19;5081190;28;45372;-67
2022/05/16 03:15:49;;;;;;;;;14.00;12.67;;;;;20.06;70.16;101020.56;5064019;28;45209;-68
2022/05/16 03:18:14;;;;;;;;;12.67;11.67;;;;;20.02;70.81;101013.72;5078711;27;47070;-68
2022/05/16 03:20:40;;;;;;;;;11.33;11.33;;;;;20.00;70.54;101024.13;5083563;27;45244;-69
2022/05/16 03:23:05;;;;;;;;;14.33;13.33;;;;;20.01;71.06;101028.59;5080579;28;45298;-67
2022/05/16 03:25:30;;;;;;;;;15.33;13.00;;;;;20.02;70.26;101030.28;5082846;27;45294;-68
2022/05/16 03:27:56;;;;;;;;;13.00;13.00;;;;;20.05;70.92;101035.41;5094283;27;47017;-67
2022/05/16 03:30:21;;;;;;;;;14.00;12.33;;;;;20.04;71.18;101038.34;5080758;28;45926;-68
2022/05/16 03:32:47;;;;;;;;;13.33;12.33;;;;;20.02;71.11;101046.81;5082894;28;45384;-67
2022/05/16 03:35:12;;;;;;;;;14.67;13.00;;;;;20.04;71.43;101030.94;5080176;27;45576;-67
2022/05/16 03:37:38;;;;;;;;;13.33;11.33;;;;;20.06;70.09;101030.72;5081209;28;47152;-67
2022/05/16 03:42:48;;;;;;;;;13.00;12.67;;;;;19.97;70.59;101005.22;5079539;28;45357;-67
2022/05/16 03:45:14;;;;;;;;;15.67;13.67;;;;;20.02;69.74;101016.47;5078824;28;45656;-68
2022/05/16 03:47:39;;;;;;;;;16.00;14.00;;;;;20.01;70.30;101020.31;5080754;28;45455;-67
2022/05/16 03:50:05;;;;;;;;;4.00;3.00;;;;;20.00;70.48;101028.78;5076985;28;45352;-67
2022/05/16 03:52:31;;;;;;;;;19.67;13.33;;;;;19.98;70.59;101039.16;5081312;28;47493;-68
2022/05/16 03:54:57;;;;;;;;;17.00;15.33;;;;;19.98;69.23;101040.03;5083498;27;45320;-68
2022/05/16 03:57:22;;;;;;;;;14.67;12.00;;;;;19.95;69.89;101050.59;5082357;28;46299;-68
2022/05/16 03:59:48;;;;;;;;;14.00;14.00;;;;;19.81;70.42;101060.69;5074821;28;45330;-68
2022/05/16 04:02:13;;;;;;;;;17.67;17.67;;;;;19.85;70.50;101070.28;5070152;28;45912;-70
2022/05/16 04:04:38;;;;;;;;;14.00;14.00;;;;;19.72;70.95;101079.31;5082059;28;45429;-68
2022/05/16 04:07:04;;;;;;;;;15.67;15.67;;;;;19.74;71.28;101088.22;5081785;28;46384;-68
2022/05/16 04:09:30;;;;;;;;;11.00;10.00;;;;;19.68;71.37;101088.16;5064331;28;45250;-68
2022/05/16 04:11:55;;;;;;;;;17.75;17.75;;;;;19.53;71.12;101093.75;5067665;28;45428;-68
2022/05/16 04:14:20;;;;;;;;;14.67;14.67;;;;;19.63;71.55;101096.19;5075611;28;45494;-68
2022/05/16 04:16:46;;;;;;;;;18.67;15.33;;;;;19.63;70.79;101098.94;5075345;28;46419;-68
2022/05/16 04:19:11;;;;;;;;;17.00;15.33;;;;;19.64;71.28;101101.50;5081484;28;45421;-68
2022/05/16 04:21:38;;;;;;;;;19.67;17.33;;;;;19.66;72.35;101101.28;5081651;28;45317;-68
2022/05/16 04:24:05;;;;;;;;;20.75;18.25;;;;;19.58;71.83;101099.50;5076798;28;45282;-68
2022/05/16 04:26:31;;;;;;;;;17.67;17.00;;;;;19.63;71.69;101113.56;5070541;28;46270;-68
2022/05/16 04:28:57;;;;;;;;;16.67;13.67;;;;;19.68;71.89;101122.09;5068385;28;45439;-68
2022/05/16 04:31:23;;;;;;;;;16.67;16.67;;;;;19.78;71.34;101130.03;5075992;28;45455;-68
2022/05/16 04:33:48;;;;;;;;;15.00;15.00;;;;;19.81;70.44;101121.34;5069793;27;45462;-68
2022/05/16 04:36:13;;;;;;;;;15.33;15.00;;;;;19.89;71.06;101128.63;5071032;28;45472;-68
2022/05/16 04:38:39;;;;;;;;;22.33;17.33;;;;;19.90;70.93;101124.81;5071922;28;45474;-68
2022/05/16 04:43:49;;;;;;;;;16.67;16.67;;;;;20.00;69.71;101139.13;5075583;28;45474;-68
2022/05/16 04:46:15;;;;;;;;;20.33;18.67;;;;;20.03;70.45;101146.97;5080197;28;46436;-68
2022/05/16 04:48:40;;;;;;;;;18.67;17.33;;;;;20.10;69.69;101156.16;5072953;28;46186;-68
2022/05/16 04:51:06;;;;;;;;;14.33;13.00;;;;;20.13;69.51;101173.16;5080881;28;45767;-68
2022/05/16 04:53:31;;;;;;;;;19.33;19.33;;;;;20.14;70.31;101177.63;5073606;28;45368;-68
2022/05/16 04:55:57;;;;;;;;;17.75;17.00;;;;;20.11;69.69;101182.69;5081046;28;45512;-68
2022/05/16 04:58:23;;;;;;;;;19.33;17.00;;;;;20.06;70.15;101190.72;5078904;27;45433;-68
2022/05/16 05:00:48;;;;;;;;;19.75;18.00;;;;;20.08;70.18;101200.50;5064099;28;45852;-68
2022/05/16 05:03:13;;;;;;;;;16.33;16.00;;;;;20.04;70.59;101214.88;5075265;28;45545;-68
2022/05/16 05:05:39;;;;;;;;;19.00;18.33;;;;;20.08;69.56;101217.06;5077641;28;47670;-68
2022/05/16 05:08:04;;;;;;;;;18.25;17.75;;;;;20.11;70.33;101232.34;5079089;28;45657;-68
2022/05/16 05:16:12;;;;;;;;;20.33;17.33;;;;;20.08;70.13;101233.63;5074628;28;45711;-68
2022/05/16 05:18:39;;;;;;;;;20.00;20.00;;;;;20.14;70.35;101235.56;5080619;27;45435;-69
2022/05/16 05:21:04;;;;;;;;;26.33;20.33;;;;;20.20;70.23;101244.94;5084823;28;45285;-69
2022/05/16 05:23:30;;;;;;;;;20.00;17.00;;;;;20.18;69.07;101247.06;5080992;27;45345;-68
2022/05/16 05:25:57;;;;;;;;;25.00;21.50;;;;;20.24;69.29;101240.72;5084679;28;46269;-68
2022/05/16 05:28:23;;;;;;;;;15.50;14.25;;;;;20.15;68.46;101241.94;5083399;27;45405;-68
2022/05/16 05:30:48;;;;;;;;;22.25;21.25;;;;;20.16;67.64;101235.38;5073074;28;45366;-68
2022/05/16 05:33:13;;;;;;;;;20.00;20.00;;;;;20.16;67.15;101247.25;5077951;28;45435;-67
2022/05/16 05:35:39;;;;;;;;;22.00;21.75;;;;;20.14;67.54;101249.38;5081140;28;46912;-67
2022/05/16 05:38:04;;;;;;;;;24.00;22.33;;;;;20.10;67.14;101250.78;5081188;27;45267;-67
2022/05/16 05:40:30;;;;;;;;;18.75;15.75;;;;;19.82;67.21;101249.88;5081240;28;45295;-67
2022/05/16 05:42:55;;;;;;;;;27.00;24.00;;;;;19.83;68.18;101259.88;5080473;27;45460;-68
2022/05/16 05:45:21;;;;;;;;;25.75;22.25;;;;;19.74;68.03;101263.81;5078271;28;45633;-68
2022/05/16 05:47:46;;;;;;;;;24.50;22.25;;;;;19.83;68.13;101259.88;5081516;28;45466;-67
2022/05/16 05:50:11;;;;;;;;;23.25;21.25;;;;;19.95;67.51;101265.72;5078081;28;45396;-69
2022/05/16 05:52:38;;;;;;;;;23.00;23.00;;;;;20.01;67.09;101275.97;5081893;27;45387;-68
2022/05/16 05:55:05;;;;;;;;;22.00;22.00;;;;;20.04;66.86;101283.84;5067571;28;45724;-68
2022/05/16 05:57:30;;;;;;;;;20.75;20.25;;;;;20.19;66.68;101292.91;5071800;28;45494;-69
2022/05/16 05:59:56;;;;;;;;;23.75;21.25;;;;;20.39;66.45;101301.38;5075873;27;45336;-69
2022/05/16 06:02:23;;;;;;;;;21.50;20.00;;;;;20.53;66.44;101309.56;5072528;28;45465;-68
2022/05/16 06:04:49;;;;;;;;;19.00;19.00;;;;;20.50;65.26;101310.00;5082840;27;46179;-69
2022/05/16 06:07:14;;;;;;;;;19.00;19.00;;;;;20.62;65.47;101314.97;5079363;28;45484;-68
2022/05/16 06:09:41;;;;;;;;;19.50;18.00;;;;;20.58;64.61;101320.03;5074341;27;45372;-68
2022/05/16 06:12:07;;;;;;;;;20.33;16.67;;;;;20.46;63.85;101327.13;5066018;28;45283;-67
2022/05/16 06:14:33;;;;;;;;;21.00;20.67;;;;;20.27;64.28;101319.50;5071985;28;46430;-67
2022/05/16 06:16:59;;;;;;;;;18.00;17.00;;;;;20.45;64.07;101320.78;5066930;28;45321;-67
2022/05/16 06:19:25;;;;;;;;;17.33;17.33;;;;;20.38;64.14;101333.66;5081994;27;45293;-67
2022/05/16 06:21:50;;;;;;;;;16.33;15.67;;;;;20.30;63.84;101322.75;5080874;28;45491;-68
2022/05/16 06:27:02;;;;;;;;;21.67;19.67;;;;;20.59;65.17;101336.41;5082285;28;45494;-68
2022/05/16 06:29:28;;;;;;;;;21.00;19.67;;;;;20.67;65.08;101343.69;5082193;27;45303;-68
2022/05/16 06:31:53;;;;;;;;;20.75;20.50;;;;;20.82;65.42;101343.59;5082791;28;45602;-69
2022/05/16 06:34:19;;;;;;;;;22.75;20.00;;;;;20.86;63.90;101337.47;5076456;28;48120;-68
2022/05/16 06:36:45;;;;;;;;;24.00;22.33;;;;;21.01;63.74;101353.06;5081709;28;45538;-68
2022/05/16 06:39:11;;;;;;;;;24.00;21.25;;;;;21.03;63.78;101359.25;5082549;28;45235;-68
2022/05/16 06:41:36;;;;;;;;;20.67;19.00;;;;;21.09;63.87;101366.75;5082731;28;45254;-68
2022/05/16 06:44:02;;;;;;;;;21.67;20.33;;;;;21.01;63.56;101364.97;5076141;27;46526;-68
2022/05/16 06:46:27;;;;;;;;;17.50;17.50;;;;;20.96;63.03;101370.28;5080390;28;45305;-68
2022/05/16 06:48:53;;;;;;;;;19.33;17.00;;;;;20.88;61.67;101382.31;5073623;28;45472;-68
2022/05/16 06:51:18;;;;;;;;;18.00;15.33;;;;;20.81;62.34;101378.66;5083000;28;45309;-69
2022/05/16 06:53:44;;;;;;;;;17.00;15.67;;;;;20.94;61.47;101378.75;5073467;28;46392;-68
2022/05/16 06:56:09;;;;;;;;;18.33;18.00;;;;;20.66;61.45;101382.53;5082181;27;45360;-68
2022/05/16 06:58:35;;;;;;;;;5.00;5.00;;;;;20.76;61.82;101391.31;5082249;27;45376;-70
2022/05/16 07:01:01;;;;;;;;;14.33;14.33;;;;;20.54;62.35;101388.59;5066153;27;45504;-68
2022/05/16 07:03:26;;;;;;;;;14.33;11.33;;;;;20.62;62.30;101401.41;5077522;28;46319;-68
2022/05/16 07:05:52;;;;;;;;;18.33;17.00;;;;;20.73;61.66;101409.16;5062202;28;45405;-68
2022/05/16 07:08:20;;;;;;;;;15.33;15.00;;;;;20.89;62.00;101411.63;5074751;27;45548;-68
2022/05/16 07:10:48;;;;;;;;;17.00;15.67;;;;;20.98;61.47;101417.84;5063083;28;45636;-68
2022/05/16 07:13:13;;;;;;;;;15.33;12.67;;;;;20.83;60.59;101419.84;5075713;28;46283;-68
2022/05/16 07:15:39;;;;;;;;;17.67;17.67;;;;;21.04;61.02;101428.09;5080035;28;45418;-68
2022/05/16 07:18:05;;;;;;;;;9.33;9.33;;;;;21.09;59.07;101424.75;5079878;27;45333;-68
2022/05/16 07:20:30;;;;;;;;;12.00;12.00;;;;;20.86;60.12;101428.63;5081572;27;45502;-68
2022/05/16 07:22:58;;;;;;;;;13.33;13.00;;;;;20.95;59.73;101438.47;5082238;28;45517;-68
2022/05/16 07:25:26;;;;;;;;;16.67;14.00;;;;;21.21;59.28;101445.28;5081732;28;45423;-69
2022/05/16 07:28:02;;;;;;;;;14.67;12.00;;;;;21.19;58.95;101450.16;5080337;27;45265;-69
2022/05/16 07:30:32;;;;;;;;;19.00;14.33;;;;;21.28;58.42;101435.13;5079350;27;45604;-69
2022/05/16 07:32:58;;;;;;;;;15.00;13.33;;;;;21.48;58.11;101447.16;5081603;27;45320;-70
2022/05/16 07:35:26;;;;;;;;;5.00;5.00;;;;;;;;5077051;28;45280;-69
2022/05/16 07:37:53;;;;;;;;;15.50;14.00;;;;;21.19;58.24;101464.81;5080266;28;45372;-68
2022/05/16 07:40:21;;;;;;;;;14.00;10.00;;;;;21.27;58.43;101470.22;5082519;27;45541;-68
2022/05/16 07:42:47;;;;;;;;;15.00;14.67;;;;;21.40;59.05;101458.41;5080118;28;46224;-68
2022/05/16 07:45:13;;;;;;;;;10.33;10.33;;;;;21.67;57.76;101460.28;5076423;28;45310;-67
2022/05/16 07:47:38;;;;;;;;;14.00;14.00;;;;;21.53;57.63;101469.56;5080513;28;45405;-69
2022/05/16 07:50:04;;;;;;;;;14.00;11.33;;;;;21.80;57.95;101465.03;5075851;28;45476;-68
2022/05/16 07:52:30;;;;;;;;;10.00;10.00;;;;;22.03;56.67;101475.81;5081952;27;45456;-69
2022/05/16 07:54:56;;;;;;;;;19.33;12.33;;;;;21.66;54.34;101472.41;5074780;28;45408;-69
2022/05/16 07:57:22;;;;;;;;;11.33;11.33;;;;;21.66;55.64;101471.53;5067872;28;45275;-69
2022/05/16 07:59:48;;;;;;;;;11.00;8.33;;;;;21.62;55.22;101479.41;5073433;27;45620;-69
2022/05/16 08:02:14;;;;;;;;;9.00;9.00;;;;;21.58;55.50;101472.56;5068926;28;45437;-70
2022/05/16 08:04:40;;;;;;;;;7.00;7.00;;;;;21.74;54.90;101480.53;5082860;28;45390;-69
2022/05/16 08:07:06;;;;;;;;;12.00;11.00;;;;;21.44;55.18;101486.50;5082188;28;45240;-69
2022/05/16 08:12:30;;;;;;;;;10.33;9.67;;;;;21.57;55.74;101481.06;5069970;28;45356;-70
2022/05/16 08:14:56;;;;;;;;;10.67;10.00;;;;;21.88;56.06;101498.06;5082552;28;45324;-69
2022/05/16 08:17:22;;;;;;;;;14.33;11.00;;;;;22.11;54.58;101483.94;5079532;28;45369;-69
2022/05/16 08:19:48;;;;;;;;;10.33;10.33;;;;;22.29;54.35;101484.22;5082514;27;45800;-69
2022/05/16 08:22:14;;;;;;;;;11.67;11.33;;;;;22.28;53.71;101476.97;5079366;28;45395;-69
2022/05/16 08:24:40;;;;;;;;;9.67;8.67;;;;;22.44;53.81;101482.16;5080064;28;45278;-69
2022/05/16 08:27:05;;;;;;;;;8.67;8.67;;;;;22.65;53.59;101483.03;5081453;28;45509;-69
2022/05/16 08:29:31;;;;;;;;;9.00;9.00;;;;;22.82;53.05;101490.78;5082494;27;45292;-69
2022/05/16 08:31:56;;;;;;;;;14.67;11.33;;;;;22.96;53.27;101488.88;5081339;27;46452;-69
2022/05/16 08:34:22;;;;;;;;;17.00;17.00;;;;;22.88;52.49;101502.94;5082518;27;45439;-69
2022/05/16 08:42:19;;;;;;;;;10.33;8.67;;;;;23.02;51.68;101504.66;5082018;28;45793;-68
2022/05/16 08:45:04;;;;;;;;;11.33;9.67;;;;;23.11;51.26;101495.09;5075312;28;45350;-68
2022/05/16 08:47:38;;;;;;;;;10.00;8.67;;;;;23.22;50.32;101516.66;5081581;27;45286;-68
2022/05/16 08:50:13;;;;;;;;;11.00;10.00;;;;;22.92;50.42;101512.56;5076700;27;45382;-69
2022/05/16 08:52:52;;;;;;;;;9.67;9.67;;;;;23.06;51.78;101511.50;5080719;27;45435;-67
2022/05/16 08:55:41;;;;;;;;;8.33;8.33;;;;;23.37;51.03;101507.25;5081091;28;45403;-68
2022/05/16 08:58:16;;;;;;;;;9.00;7.67;;;;;23.35;48.50;101509.38;5083203;27;45308;-68
2022/05/16 09:00:51;;;;;;;;;6.67;5.33;;;;;23.34;50.68;101522.38;5070394;28;45622;-68
2022/05/16 09:03:38;;;;;;;;;11.00;10.67;;;;;23.32;50.15;101518.13;5080914;28;45340;-68
2022/05/16 09:06:13;;;;;;;;;14.00;7.67;;;;;23.10;50.32;101526.63;5066336;27;45479;-68
2022/05/16 09:08:53;;;;;;;;;5.67;5.00;;;;;22.73;50.92;101524.41;5079158;27;45429;-68
2022/05/16 09:11:57;;;;;;;;;8.67;7.67;;;;;22.52;51.55;101539.25;5077602;28;45518;-68
2022/05/16 09:14:41;;;;;;;;;15.33;11.00;;;;;22.80;51.81;101553.88;5085638;28;45167;-68
2022/05/16 09:17:44;;;;;;;;;12.67;10.67;;;;;22.59;51.82;101555.91;5081568;28;45174;-69
2022/05/16 09:20:27;;;;;;;;;10.33;10.33;;;;;22.50;52.83;101553.31;5080953;28;45402;-69
2022/05/16 09:22:59;;;;;;;;;9.00;7.33;;;;;22.73;52.38;101549.34;5076025;28;45462;-69
2022/05/16 09:25:32;;;;;;;;;10.67;8.00;;;;;22.86;52.00;101553.06;5085196;28;45218;-69
2022/05/16 09:30:46;;;;;;;;;13.00;10.33;;;;;22.29;51.99;101556.19;5074662;28;45393;-69
2022/05/16 09:33:19;;;;;;;;;9.00;7.00;;;;;22.31;52.40;101556.84;5077536;28;45491;-70
2022/05/16 09:36:02;;;;;;;;;8.00;7.00;;;;;22.32;52.98;101566.88;5081726;28;47611;-69
2022/05/16 09:38:29;;;;;;;;;11.67;9.67;;;;;22.40;51.32;101574.16;5093398;27;45347;-68
2022/05/16 09:41:03;;;;;;;;;12.33;8.00;;;;;22.18;51.85;101576.16;5064580;28;45214;-68
2022/05/16 09:43:37;;;;;;;;;8.00;7.00;;;;;22.14;51.84;101580.38;5075088;28;45425;-70
2022/05/16 09:46:21;;;;;;;;;8.33;7.67;;;;;22.23;53.09;101576.41;5069651;27;46424;-69
2022/05/16 09:48:54;;;;;;;;;10.33;7.33;;;;;22.53;52.26;101582.50;5076014;28;45446;-68
2022/05/16 09:51:20;;;;;;;;;9.33;8.67;;;;;22.77;51.94;101579.25;5084142;28;45451;-67
2022/05/16 09:53:45;;;;;;;;;11.33;10.33;;;;;23.24;50.58;101583.81;5084833;28;45694;-68
2022/05/16 09:56:24;;;;;;;;;12.67;10.67;;;;;23.57;49.07;101581.09;5066071;27;46440;-67
2022/05/16 09:58:54;;;;;;;;;5.33;5.33;;;;;23.60;49.12;101588.97;5082464;28;45353;-67
2022/05/16 10:01:34;;;;;;;;;11.00;7.33;;;;;24.27;49.62;101589.75;5064610;28;45341;-67
2022/05/16 10:04:18;;;;;;;;;11.33;10.67;;;;;24.57;46.55;101582.59;5084049;28;45415;-68
2022/05/16 10:06:57;;;;;;;;;11.00;11.00;;;;;24.28;46.51;101585.91;5084377;27;45542;-67
2022/05/16 10:09:33;;;;;;;;;6.67;6.67;;;;;24.71;45.82;101572.28;5074679;27;45464;-67
2022/05/16 10:11:59;;;;;;;;;9.67;8.33;;;;;25.43;44.62;101579.31;5068692;28;47476;-68
2022/05/16 10:14:25;;;;;;;;;7.33;7.33;;;;;25.71;45.22;101584.50;5084610;28;45548;-68
2022/05/16 10:16:53;;;;;;;;;10.67;9.00;;;;;25.52;43.66;101589.09;5082713;28;45452;-68
2022/05/16 10:19:22;;;;;;;;;9.00;9.00;;;;;25.43;44.64;101596.00;5083101;28;45388;-67
2022/05/16 10:21:56;;;;;;;;;6.00;5.33;;;;;26.00;44.06;101597.72;5084096;28;45375;-68
2022/05/16 10:24:27;;;;;;;;;8.00;7.33;;;;;26.28;43.78;101600.00;5080923;28;45222;-68
2022/05/16 10:26:56;;;;;;;;;10.00;10.00;;;;;26.01;42.77;101604.13;5083512;28;45278;-67
2022/05/16 10:29:30;;;;;;;;;7.33;7.33;;;;;25.97;43.42;101600.94;5080186;28;45576;-69
2022/05/16 10:34:57;;;;;;;;;8.67;8.67;;;;;26.86;42.02;101596.72;5082401;28;45465;-68
2022/05/16 10:37:25;;;;;;;;;7.00;7.00;;;;;27.27;42.12;101602.34;5070376;28;47383;-68
2022/05/16 10:40:02;;;;;;;;;7.00;7.00;;;;;27.65;40.59;101582.44;5084432;27;45268;-68
2022/05/16 10:42:37;;;;;;;;;11.00;10.00;;;;;27.48;39.44;101587.84;5084062;28;45346;-69
2022/05/16 10:45:10;;;;;;;;;9.00;6.33;;;;;27.86;39.88;101592.16;5069906;28;45599;-67
2022/05/16 10:47:57;;;;;;;;;5.00;5.00;;;;;27.67;39.27;101594.22;5072355;28;45444;-68
2022/05/16 10:50:28;;;;;;;;;7.00;7.00;;;;;27.06;40.04;101588.94;5079859;28;45461;-69
2022/05/16 10:53:04;;;;;;;;;6.33;5.67;;;;;26.60;40.01;101592.31;5083730;28;45853;-68
2022/05/16 10:55:43;;;;;;;;;8.00;8.00;;;;;26.19;41.10;101599.41;5072996;28;45332;-68
2022/05/16 10:58:22;;;;;;;;;8.33;6.67;;;;;27.28;40.82;101583.66;5078105;27;45391;-69
2022/05/16 11:01:09;;;;;;;;;6.00;6.00;;;;;28.30;38.59;101585.13;5068448;27;45244;-69
2022/05/16 11:03:34;;;;;;;;;8.33;8.00;;;;;28.77;36.44;101588.69;5081604;28;45300;-69
2022/05/16 11:06:11;;;;;;;;;8.00;8.00;;;;;28.82;36.38;101590.75;5084681;28;45329;-68
2022/05/16 11:08:59;;;;;;;;;5.00;5.00;;;;;28.16;37.18;101583.69;5083409;27;45526;-69
2022/05/16 11:11:42;;;;;;;;;5.00;5.00;;;;;26.88;38.14;101600.97;5074283;27;45378;-68
2022/05/16 11:14:23;;;;;;;;;4.67;4.67;;;;;26.96;38.51;101597.00;5084196;27;45499;-67
2022/05/16 11:16:53;;;;;;;;;7.67;6.33;;;;;27.04;39.35;101593.91;5082203;28;45583;-69
2022/05/16 11:19:48;;;;;;;;;6.00;5.67;;;;;28.07;37.95;101587.91;5081312;27;47851;-68
2022/05/16 11:22:31;;;;;;;;;7.67;6.33;;;;;29.11;36.66;101586.84;5069394;28;45438;-69
2022/05/16 11:25:05;;;;;;;;;6.67;6.67;;;;;28.83;35.29;101586.84;5075415;28;45405;-69
2022/05/16 11:27:42;;;;;;;;;6.67;4.00;;;;;28.52;36.18;101597.38;5082871;27;45338;-69
2022/05/16 11:30:45;;;;;;;;;7.00;7.00;;;;;29.58;35.61;101583.81;5082678;27;45372;-69
2022/05/16 11:33:44;;;;;;;;;6.00;4.00;;;;;29.16;34.09;101588.88;5080245;28;45384;-68
2022/05/16 11:36:30;;;;;;;;;6.67;6.67;;;;;28.73;35.75;101598.63;5061887;28;45460;-68
2022/05/16 11:39:02;;;;;;;;;5.00;4.00;;;;;29.14;33.53;101589.16;5077496;27;45942;-69
2022/05/16 11:41:39;;;;;;;;;7.67;6.00;;;;;28.75;34.14;101576.91;5082866;28;45439;-69
2022/05/16 11:44:28;;;;;;;;;4.67;4.00;;;;;29.40;33.97;101584.88;5074339;28;45279;-69
2022/05/16 11:47:15;;;;;;;;;4.00;4.00;;;;;29.49;32.35;101582.53;5078618;27;45277;-69
2022/05/16 11:49:51;;;;;;;;;6.00;6.00;;;;;28.83;33.94;101586.84;5082289;28;45365;-69
2022/05/16 11:52:35;;;;;;;;;5.00;3.00;;;;;29.10;33.68;101576.75;5081174;28;46326;-69
2022/05/16 12:00:31;;;;;;;;;7.00;4.00;;;;;29.15;34.38;101584.41;5074105;28;45402;-69
2022/05/16 12:00:50;;;;;;;;;4.00;4.00;;;;;30.48;32.55;101567.53;5069441;28;45271;-69
2022/05/16 12:03:19;;;;;;;;;5.00;4.00;;;;;30.39;31.31;101568.25;5076250;28;45342;-69
2022/05/16 12:05:49;;;;;;;;;4.00;4.00;;;;;30.34;31.53;101568.19;5066091;28;45339;-70